LEBB/BIO METAR and TAF weather

Enter ICAO airport designator
Station Type Date Time Source
LEBB METAR 2022/07/01 00:30 UTC NOAA

LEBB 010030Z AUTO 07003KT CAVOK 12/12 Q1021


Station Type Date Time Source
LEBB Decoded METAR 2022/07/01 00:30 UTC NOAA

Bilbao / Sondica, Spain (LEBB) 43-18N 002-56W 37M
Jun 30, 2022 - 08:30 PM EDT / 2022.07.01 0030 UTC
Wind: from the ENE (070 degrees) at 3 MPH (3 KT):0
Visibility: greater than 7 mile(s):0
Temperature: 53 F (12 C)
Dew Point: 53 F (12 C)
Relative Humidity: 100%
Pressure (altimeter): 30.15 in. Hg (1021 hPa)
ob: LEBB 010030Z AUTO 07003KT CAVOK 12/12 Q1021
cycle: 0

Station Type Date Time Source
LEBB TAF 2022/06/30 18:27 UTC NOAA

TAF LEBB 301700Z 3018/0118 32008KT 9999 SCT030 TX24/0113Z TN10/0105Z
BECMG 3018/3021 VRB04KT PROB30
TEMPO 0100/0106 3000 BR BKN010
BECMG 0107/0111 09008KT

Example: see airport list